createdAt,value
2018-11-03T00:02:16.205Z,644.45
2018-11-03T00:04:44.539Z,637.25
2018-11-03T00:07:12.871Z,616.85
2018-11-03T00:09:41.308Z,643.30
2018-11-03T00:12:09.628Z,624.30
2018-11-03T00:14:37.972Z,667.08
2018-11-03T00:17:06.300Z,643.30
2018-11-03T00:19:34.632Z,644.60
2018-11-03T00:22:02.956Z,646.53
2018-11-03T00:24:31.296Z,624.67
2018-11-03T00:26:59.630Z,618.27
2018-11-03T00:29:27.980Z,635.33
2018-11-03T00:31:56.312Z,642.30
2018-11-03T00:34:24.664Z,626.25
2018-11-03T00:36:53.012Z,674.60
2018-11-03T00:39:21.365Z,635.25
2018-11-03T00:41:49.680Z,658.15
2018-11-03T00:44:18.003Z,646.10
2018-11-03T00:46:46.329Z,646.63
2018-11-03T00:49:14.726Z,645.95
2018-11-03T00:51:43.081Z,638.63
2018-11-03T00:54:11.429Z,646.25
2018-11-03T00:56:39.759Z,639.50
2018-11-03T00:59:08.080Z,648.77
2018-11-03T01:01:36.416Z,656.35
2018-11-03T01:04:04.944Z,650.45
2018-11-03T01:06:33.285Z,645.17
2018-11-03T01:09:01.624Z,653.73
2018-11-03T01:11:29.961Z,645.70
2018-11-03T01:13:58.268Z,651.15
2018-11-03T01:16:26.587Z,653.80
2018-11-03T01:18:54.900Z,661.00
2018-11-03T01:21:23.272Z,636.38
2018-11-03T01:23:51.674Z,666.52
2018-11-03T01:26:19.936Z,658.85
2018-11-03T01:28:48.268Z,641.98
2018-11-03T01:31:16.613Z,658.35
2018-11-03T01:33:44.927Z,633.72
2018-11-03T01:36:13.248Z,660.92
2018-11-03T01:38:41.589Z,650.62
2018-11-03T01:41:09.932Z,644.62
2018-11-03T01:43:38.247Z,651.00
2018-11-03T01:46:06.616Z,654.80
2018-11-03T01:48:34.956Z,630.98
2018-11-03T01:51:03.306Z,624.95
2018-11-03T01:53:31.654Z,646.50
2018-11-03T01:56:00.017Z,625.80
2018-11-03T01:58:28.326Z,593.60
2018-11-03T02:00:56.654Z,583.02
2018-11-03T02:03:24.988Z,602.52
2018-11-03T02:05:53.324Z,616.52
2018-11-03T02:08:21.673Z,617.07
2018-11-03T02:10:49.991Z,621.60
2018-11-03T02:13:18.317Z,614.23
2018-11-03T02:15:46.632Z,622.02
2018-11-03T02:18:14.948Z,619.25
2018-11-03T02:20:43.319Z,618.60
2018-11-03T02:23:11.660Z,625.17
2018-11-03T02:25:39.997Z,619.40
2018-11-03T02:28:08.339Z,636.77
2018-11-03T02:30:36.688Z,646.03
2018-11-03T02:33:05.004Z,652.70
2018-11-03T02:35:33.337Z,641.62
2018-11-03T02:38:01.673Z,644.90
2018-11-03T02:40:30.012Z,643.97
2018-11-03T02:42:58.328Z,623.85
2018-11-03T02:45:26.640Z,613.85
2018-11-03T02:47:55.012Z,623.83
2018-11-03T02:50:23.340Z,618.70
2018-11-03T02:52:51.692Z,620.60
2018-11-03T02:55:20.012Z,634.77
2018-11-03T02:57:48.361Z,632.12
2018-11-03T03:00:16.680Z,630.30
2018-11-03T03:02:45.004Z,625.53
2018-11-03T03:05:13.343Z,608.23
2018-11-03T03:07:41.893Z,620.60
2018-11-03T03:10:11.591Z,615.20
2018-11-03T03:12:40.001Z,659.65
2018-11-03T03:15:10.015Z,616.48
2018-11-03T03:17:38.349Z,634.90
2018-11-03T03:20:08.037Z,618.95
2018-11-03T03:22:36.380Z,622.40
2018-11-03T03:25:05.041Z,629.90
2018-11-03T03:27:33.540Z,631.30
2018-11-03T03:30:01.873Z,626.30
2018-11-03T03:32:30.411Z,649.62
2018-11-03T03:34:58.891Z,630.45
2018-11-03T03:37:27.225Z,646.58
2018-11-03T03:39:55.547Z,639.40
2018-11-03T03:42:23.888Z,650.05
2018-11-03T03:44:52.221Z,631.63
2018-11-03T03:47:20.580Z,641.30
2018-11-03T03:49:48.898Z,640.77
2018-11-03T03:52:17.361Z,636.10
2018-11-03T03:54:45.708Z,638.08
2018-11-03T03:57:14.049Z,627.78
2018-11-03T03:59:42.376Z,630.60
2018-11-03T04:02:10.704Z,646.35
2018-11-03T04:04:39.028Z,644.65
2018-11-03T04:07:07.492Z,638.65
2018-11-03T04:09:35.807Z,632.05
2018-11-03T04:12:04.181Z,658.80
2018-11-03T04:14:32.504Z,695.92
2018-11-03T04:17:00.828Z,640.35
2018-11-03T04:19:29.144Z,643.33
2018-11-03T04:21:57.482Z,629.33
2018-11-03T04:24:25.805Z,666.95
2018-11-03T04:26:54.145Z,618.60
2018-11-03T04:29:22.461Z,603.65
2018-11-03T04:31:50.809Z,610.90
2018-11-03T04:34:19.117Z,606.95
2018-11-03T04:36:47.461Z,638.83
2018-11-03T04:39:15.772Z,613.37
2018-11-03T04:41:44.121Z,622.98
2018-11-03T04:44:12.468Z,624.92
2018-11-03T04:46:40.812Z,635.37
2018-11-03T04:49:09.244Z,622.92
2018-11-03T04:51:37.596Z,648.08
2018-11-03T04:54:05.921Z,591.98
2018-11-03T04:56:34.273Z,589.90
2018-11-03T04:59:02.581Z,587.60
2018-11-03T05:01:30.901Z,601.70
2018-11-03T05:03:59.235Z,594.65
2018-11-03T05:06:27.573Z,578.75
2018-11-03T05:08:55.904Z,582.20
2018-11-03T05:11:24.216Z,596.58
2018-11-03T05:13:52.585Z,606.90
2018-11-03T05:16:20.903Z,632.70
2018-11-03T05:18:49.233Z,628.20
2018-11-03T05:21:17.658Z,637.60
2018-11-03T05:23:45.920Z,613.20
2018-11-03T05:26:14.219Z,622.48
2018-11-03T05:28:42.549Z,610.30
2018-11-03T05:31:10.947Z,612.38
2018-11-03T05:33:39.244Z,598.20
2018-11-03T05:36:07.544Z,616.40
2018-11-03T05:38:35.888Z,637.48
2018-11-03T05:41:05.298Z,636.70
2018-11-03T05:43:33.720Z,638.22
2018-11-03T05:46:02.071Z,616.97
2018-11-03T05:48:30.413Z,642.12
2018-11-03T05:50:58.753Z,635.40
2018-11-03T05:53:29.597Z,654.00
2018-11-03T05:55:59.007Z,626.82
2018-11-03T05:58:27.486Z,622.97
2018-11-03T06:00:55.916Z,624.92
2018-11-03T06:03:24.255Z,640.58
2018-11-03T06:05:52.582Z,620.73
2018-11-03T06:08:20.969Z,622.63
2018-11-03T06:10:49.394Z,640.17
2018-11-03T06:13:17.734Z,649.05
2018-11-03T06:15:46.125Z,629.25
2018-11-03T06:18:14.493Z,629.10
2018-11-03T06:20:42.983Z,628.12
2018-11-03T06:23:11.468Z,617.42
2018-11-03T06:25:39.714Z,615.20
2018-11-03T06:28:08.045Z,613.77
2018-11-03T06:30:36.344Z,617.37
2018-11-03T06:33:04.941Z,620.25
2018-11-03T06:35:33.247Z,627.73
2018-11-03T06:38:01.697Z,636.98
2018-11-03T06:40:30.017Z,626.63
2018-11-03T06:42:58.361Z,628.77
2018-11-03T06:45:26.686Z,613.95
2018-11-03T06:47:55.087Z,595.62
2018-11-03T06:50:23.404Z,605.45
2018-11-03T06:52:51.772Z,613.73
2018-11-03T06:55:20.144Z,610.05
2018-11-03T06:57:48.516Z,618.33
2018-11-03T07:00:18.457Z,611.23
2018-11-03T07:02:46.896Z,596.22
2018-11-03T07:05:15.253Z,596.30
2018-11-03T07:07:43.599Z,602.45
2018-11-03T07:10:12.131Z,593.17
2018-11-03T07:12:41.013Z,621.00
2018-11-03T07:15:09.838Z,606.60
2018-11-03T07:17:38.204Z,613.40
2018-11-03T07:20:08.780Z,627.90
2018-11-03T07:22:37.204Z,622.55
2018-11-03T07:25:06.289Z,608.80
2018-11-03T07:27:34.703Z,644.65
2018-11-03T07:30:03.282Z,635.55
2018-11-03T07:32:31.608Z,651.85
2018-11-03T07:34:59.964Z,621.03
2018-11-03T07:37:28.293Z,595.70
2018-11-03T07:39:56.632Z,591.75
2018-11-03T07:42:25.064Z,603.50
2018-11-03T07:44:53.317Z,570.73
2018-11-03T07:47:21.651Z,586.12
2018-11-03T07:49:49.986Z,564.85
2018-11-03T07:52:18.345Z,579.83
2018-11-03T07:54:46.743Z,570.77
2018-11-03T07:57:15.028Z,579.75
2018-11-03T07:59:43.486Z,579.35
2018-11-03T08:02:11.807Z,582.60
2018-11-03T08:04:40.150Z,582.10
2018-11-03T08:07:08.463Z,607.80
2018-11-03T08:09:36.793Z,616.25
2018-11-03T08:12:05.124Z,636.47
2018-11-03T08:14:33.468Z,618.33
2018-11-03T08:17:01.801Z,627.42
2018-11-03T08:19:30.146Z,610.37
2018-11-03T08:21:58.452Z,640.75
2018-11-03T08:24:26.808Z,618.52
2018-11-03T08:26:55.205Z,627.15
2018-11-03T08:29:23.541Z,613.22
2018-11-03T08:31:51.866Z,628.35
2018-11-03T08:34:20.241Z,622.35
2018-11-03T08:36:48.562Z,640.98
2018-11-03T08:39:16.910Z,636.38
2018-11-03T08:41:45.224Z,664.90
2018-11-03T08:44:13.595Z,665.62
2018-11-03T08:46:41.934Z,681.37
2018-11-03T08:49:10.287Z,679.98
2018-11-03T08:51:38.628Z,669.17
2018-11-03T08:54:07.000Z,693.05
2018-11-03T08:56:35.324Z,701.25
2018-11-03T08:59:03.657Z,707.33
2018-11-03T09:01:32.049Z,727.28
2018-11-03T09:04:00.438Z,736.55
2018-11-03T09:06:28.772Z,748.73
2018-11-03T09:08:57.111Z,760.25
2018-11-03T09:11:25.417Z,749.05
2018-11-03T09:13:53.752Z,743.30
2018-11-03T09:16:22.106Z,745.25
2018-11-03T09:18:50.431Z,758.00
2018-11-03T09:21:18.765Z,776.15
2018-11-03T09:23:47.272Z,779.45
2018-11-03T09:26:15.589Z,738.30
2018-11-03T09:28:43.932Z,735.08
2018-11-03T09:31:12.300Z,733.87
2018-11-03T09:33:40.659Z,748.95
2018-11-03T09:36:08.963Z,717.87
2018-11-03T09:38:37.280Z,711.57
2018-11-03T09:41:05.863Z,708.23
2018-11-03T09:43:34.237Z,700.17
2018-11-03T09:46:02.505Z,713.33
2018-11-03T09:48:30.819Z,727.92
2018-11-03T09:50:59.184Z,746.12
2018-11-03T09:53:27.498Z,722.65
2018-11-03T09:55:55.851Z,729.75
2018-11-03T09:58:24.176Z,734.10
2018-11-03T10:00:52.520Z,737.85
2018-11-03T10:03:20.836Z,719.63
2018-11-03T10:05:49.160Z,741.92
2018-11-03T10:08:17.498Z,715.20
2018-11-03T10:10:45.847Z,748.45
2018-11-03T10:13:14.153Z,740.35
2018-11-03T10:15:42.545Z,752.15
2018-11-03T10:18:10.807Z,759.58
2018-11-03T10:20:39.140Z,748.20
2018-11-03T10:23:07.557Z,772.67
2018-11-03T10:25:35.835Z,773.80
2018-11-03T10:28:04.181Z,776.17
2018-11-03T10:30:32.608Z,778.93
2018-11-03T10:33:00.915Z,775.65
2018-11-03T10:35:29.261Z,758.10
2018-11-03T10:37:57.589Z,752.23
2018-11-03T10:40:25.932Z,736.83
2018-11-03T10:42:54.284Z,740.45
2018-11-03T10:45:22.638Z,757.07
2018-11-03T10:47:50.964Z,765.77
2018-11-03T10:50:19.625Z,775.02
2018-11-03T10:52:48.383Z,788.08
2018-11-03T10:55:17.951Z,794.90
2018-11-03T10:57:46.256Z,806.67
2018-11-03T11:00:21.489Z,790.30
2018-11-03T11:02:55.283Z,777.27
2018-11-03T11:05:29.023Z,775.98
2018-11-03T11:08:02.748Z,778.77
2018-11-03T11:10:36.436Z,758.15
2018-11-03T11:13:07.603Z,771.83
2018-11-03T11:15:35.978Z,791.77
2018-11-03T11:18:04.335Z,771.12
2018-11-03T11:20:32.673Z,771.08
2018-11-03T11:23:00.991Z,773.33
2018-11-03T11:25:29.498Z,766.08
2018-11-03T11:27:57.690Z,771.45
2018-11-03T11:30:30.265Z,746.00
2018-11-03T11:34:38.139Z,744.60
2018-11-03T11:37:06.443Z,756.45
2018-11-03T11:39:34.873Z,762.35
2018-11-03T11:42:03.266Z,765.90
2018-11-03T11:44:31.605Z,772.73
2018-11-03T11:46:59.955Z,792.83
2018-11-03T11:49:28.304Z,791.00
2018-11-03T11:51:56.804Z,806.95
2018-11-03T11:54:25.119Z,806.95
2018-11-03T11:56:53.461Z,810.17
2018-11-03T11:59:21.797Z,802.65
2018-11-03T12:01:50.123Z,825.57
2018-11-03T12:04:18.437Z,760.00
2018-11-03T12:06:46.772Z,754.83
2018-11-03T12:09:15.100Z,759.95
2018-11-03T12:11:43.436Z,749.48
2018-11-03T12:14:11.751Z,740.80
2018-11-03T12:16:40.092Z,747.63
2018-11-03T12:19:08.421Z,772.77
2018-11-03T12:21:36.792Z,766.38
2018-11-03T12:24:05.678Z,792.75
2018-11-03T12:26:34.033Z,760.33
2018-11-03T12:29:02.372Z,739.40
2018-11-03T12:31:30.727Z,757.45
2018-11-03T12:33:59.081Z,739.37
2018-11-03T12:36:27.428Z,755.22
2018-11-03T12:38:55.747Z,749.05
2018-11-03T12:41:24.188Z,707.77
2018-11-03T12:43:52.428Z,728.08
2018-11-03T12:46:20.769Z,743.67
2018-11-03T12:48:49.140Z,728.17
2018-11-03T12:51:17.500Z,732.17
2018-11-03T12:53:45.849Z,737.85
2018-11-03T12:56:14.205Z,694.75
2018-11-03T12:58:42.524Z,723.07
2018-11-03T13:01:10.862Z,735.70
2018-11-03T13:03:39.208Z,740.47
2018-11-03T13:06:07.543Z,755.40
2018-11-03T13:09:21.895Z,690.00
2018-11-03T13:11:50.220Z,715.65
2018-11-03T13:14:18.553Z,695.45
2018-11-03T13:16:46.904Z,706.20
2018-11-03T13:19:15.236Z,748.27
2018-11-03T13:21:43.606Z,709.08
2018-11-03T13:24:12.453Z,696.35
2018-11-03T13:26:40.772Z,694.60
2018-11-03T13:29:09.109Z,685.40
2018-11-03T13:31:37.456Z,688.83
2018-11-03T13:34:06.335Z,693.40
2018-11-03T13:36:34.676Z,690.40
2018-11-03T13:39:02.991Z,690.58
2018-11-03T13:41:31.316Z,688.98
2018-11-03T13:43:59.652Z,691.52
2018-11-03T13:46:27.991Z,675.95
2018-11-03T13:48:56.316Z,686.45
2018-11-03T13:51:24.788Z,683.98
2018-11-03T13:53:53.124Z,683.35
2018-11-03T13:56:21.462Z,682.42
2018-11-03T13:58:49.887Z,688.98
2018-11-03T14:01:18.215Z,693.02
2018-11-03T14:03:46.547Z,684.17
2018-11-03T14:06:14.868Z,693.35
2018-11-03T14:08:43.192Z,680.42
2018-11-03T14:11:11.699Z,701.17
2018-11-03T14:13:39.969Z,719.20
2018-11-03T14:16:08.304Z,734.75
2018-11-03T14:18:36.601Z,703.65
2018-11-03T14:21:05.045Z,689.77
2018-11-03T14:23:33.446Z,689.20
2018-11-03T14:26:01.729Z,702.65
2018-11-03T14:28:30.037Z,697.60
2018-11-03T14:30:58.368Z,682.60
2018-11-03T14:33:26.804Z,681.35
2018-11-03T14:35:55.056Z,718.25
2018-11-03T14:38:23.400Z,704.87
2018-11-03T14:40:51.728Z,709.17
2018-11-03T14:43:20.057Z,689.65
2018-11-03T14:45:48.385Z,698.52
2018-11-03T14:48:16.726Z,697.37
2018-11-03T14:50:45.037Z,707.50
2018-11-03T14:53:13.393Z,681.27
2018-11-03T14:55:41.717Z,701.30
2018-11-03T14:58:10.055Z,697.83
2018-11-03T15:00:38.696Z,713.08
2018-11-03T15:03:07.721Z,693.30
2018-11-03T15:05:36.021Z,705.25
2018-11-03T15:08:04.494Z,716.50
2018-11-03T15:10:33.010Z,705.58
2018-11-03T15:13:01.353Z,685.58
2018-11-03T15:15:29.688Z,667.27
2018-11-03T15:17:58.035Z,701.30
2018-11-03T15:20:26.346Z,658.17
2018-11-03T15:22:54.688Z,701.87
2018-11-03T15:25:23.019Z,684.20
2018-11-03T15:27:51.390Z,690.35
2018-11-03T15:30:19.687Z,696.48
2018-11-03T15:32:48.020Z,700.63
2018-11-03T15:35:16.325Z,689.97
2018-11-03T15:37:44.667Z,693.25
2018-11-03T15:40:14.283Z,707.08
2018-11-03T15:42:43.113Z,726.13
2018-11-03T15:45:13.743Z,700.25
2018-11-03T15:47:42.622Z,691.58
2018-11-03T15:50:11.333Z,699.17
2018-11-03T15:52:39.673Z,684.75
2018-11-03T15:55:08.003Z,712.30
2018-11-03T15:57:36.541Z,680.73
2018-11-03T16:00:06.550Z,684.67
2018-11-03T16:02:34.888Z,701.48
2018-11-03T16:05:03.205Z,688.58
2018-11-03T16:07:31.563Z,669.67
2018-11-03T16:09:59.911Z,657.50
2018-11-03T16:12:28.303Z,678.42
2018-11-03T16:14:56.560Z,724.65
2018-11-03T16:17:24.892Z,680.30
2018-11-03T16:19:53.211Z,687.48
2018-11-03T16:22:21.553Z,689.08
2018-11-03T16:24:49.862Z,705.48
2018-11-03T16:27:18.201Z,688.75
2018-11-03T16:29:46.500Z,677.90
2018-11-03T16:32:14.926Z,668.95
2018-11-03T16:34:43.197Z,671.17
2018-11-03T16:37:11.524Z,671.45
2018-11-03T16:39:39.827Z,668.63
2018-11-03T16:42:08.168Z,666.52
2018-11-03T16:44:36.509Z,657.60
2018-11-03T16:47:04.877Z,709.05
2018-11-03T16:49:33.187Z,679.83
2018-11-03T16:52:01.525Z,672.60
2018-11-03T16:54:30.877Z,672.63
2018-11-03T16:57:00.212Z,678.52
2018-11-03T16:59:28.793Z,658.65
2018-11-03T17:01:57.101Z,670.05
2018-11-03T17:04:25.441Z,676.33
2018-11-03T17:06:53.801Z,662.23
2018-11-03T17:09:22.124Z,674.95
2018-11-03T17:11:50.432Z,685.15
2018-11-03T17:14:18.777Z,692.08
2018-11-03T17:16:47.084Z,684.83
2018-11-03T17:19:15.413Z,694.73
2018-11-03T17:21:43.732Z,695.70
2018-11-03T17:24:12.123Z,707.27
2018-11-03T17:26:40.432Z,692.43
2018-11-03T17:29:08.776Z,694.45
2018-11-03T17:31:37.100Z,705.95
2018-11-03T17:34:05.707Z,695.50
2018-11-03T17:36:34.082Z,693.70
2018-11-03T17:39:02.439Z,684.92
2018-11-03T17:41:30.769Z,696.92
2018-11-03T17:43:59.151Z,723.20
2018-11-03T17:46:27.436Z,706.25
2018-11-03T17:48:55.787Z,709.27
2018-11-03T17:51:24.140Z,721.72
2018-11-03T17:53:52.539Z,724.08
2018-11-03T17:56:20.839Z,731.00
2018-11-03T17:58:49.216Z,708.72
2018-11-03T18:01:17.706Z,727.70
2018-11-03T18:03:46.002Z,699.17
2018-11-03T18:06:14.338Z,691.35
2018-11-03T18:08:42.664Z,692.30
2018-11-03T18:11:11.045Z,692.48
2018-11-03T18:13:39.669Z,676.22
2018-11-03T18:16:08.289Z,720.70
2018-11-03T18:18:36.620Z,657.63
2018-11-03T18:21:04.984Z,668.65
2018-11-03T18:23:33.343Z,667.50
2018-11-03T18:26:01.740Z,689.10
2018-11-03T18:28:30.189Z,655.60
2018-11-03T18:30:58.572Z,689.63
2018-11-03T18:33:27.018Z,690.60
2018-11-03T18:35:55.196Z,674.08
2018-11-03T18:38:23.609Z,685.50
2018-11-03T18:40:51.935Z,682.95
2018-11-03T18:43:20.267Z,698.97
2018-11-03T18:45:48.592Z,700.25
2018-11-03T18:48:16.920Z,707.15
2018-11-03T18:50:45.260Z,692.77
2018-11-03T18:53:13.609Z,680.30
2018-11-03T18:55:41.915Z,682.95
2018-11-03T18:58:10.253Z,692.77
2018-11-03T19:00:38.563Z,680.33
2018-11-03T19:03:06.996Z,684.92
2018-11-03T19:05:35.308Z,685.70
2018-11-03T19:08:03.645Z,665.40
2018-11-03T19:10:31.983Z,695.90
2018-11-03T19:13:00.401Z,703.90
2018-11-03T19:15:28.683Z,695.75
2018-11-03T19:17:57.089Z,682.00
2018-11-03T19:20:25.427Z,702.92
2018-11-03T19:22:53.745Z,691.42
2018-11-03T19:25:22.163Z,691.25
2018-11-03T19:27:50.480Z,708.38
2018-11-03T19:30:18.921Z,667.77
2018-11-03T19:32:47.200Z,701.37
2018-11-03T19:35:15.572Z,685.23
2018-11-03T19:37:43.911Z,702.00
2018-11-03T19:40:13.112Z,692.95
2018-11-03T19:42:41.839Z,697.27
2018-11-03T19:45:10.712Z,693.93
2018-11-03T19:47:39.006Z,700.75
2018-11-03T19:50:08.900Z,698.67
2018-11-03T19:52:37.220Z,696.42
2018-11-03T19:55:05.779Z,698.30
2018-11-03T19:57:34.314Z,684.48
2018-11-03T20:00:02.677Z,691.40
2018-11-03T20:02:31.534Z,692.17
2018-11-03T20:04:59.946Z,706.65
2018-11-03T20:07:28.633Z,728.20
2018-11-03T20:09:57.044Z,697.20
2018-11-03T20:12:25.363Z,704.87
2018-11-03T20:14:53.802Z,708.75
2018-11-03T20:17:22.141Z,713.12
2018-11-03T20:19:50.465Z,704.05
2018-11-03T20:22:18.783Z,720.17
2018-11-03T20:24:47.111Z,718.42
2018-11-03T20:27:15.452Z,730.33
2018-11-03T20:29:43.788Z,715.08
2018-11-03T20:32:12.088Z,706.95
2018-11-03T20:34:40.440Z,711.40
2018-11-03T20:37:08.993Z,711.28
2018-11-03T20:39:37.348Z,708.10
2018-11-03T20:42:05.962Z,707.25
2018-11-03T20:44:34.296Z,714.95
2018-11-03T20:47:02.955Z,699.38
2018-11-03T20:49:31.287Z,701.70
2018-11-03T20:51:59.682Z,697.27
2018-11-03T20:54:28.092Z,697.87
2018-11-03T20:56:56.397Z,705.45
2018-11-03T20:59:24.932Z,696.70
2018-11-03T21:01:53.365Z,712.27
2018-11-03T21:04:21.704Z,707.40
2018-11-03T21:06:50.008Z,703.43
2018-11-03T21:09:18.332Z,708.25
2018-11-03T21:11:46.645Z,685.73
2018-11-03T21:14:14.989Z,715.90
2018-11-03T21:16:43.323Z,708.45
2018-11-03T21:19:11.868Z,713.37
2018-11-03T21:21:40.289Z,722.33
2018-11-03T21:24:08.741Z,717.22
2018-11-03T21:26:37.023Z,732.70
2018-11-03T21:29:05.996Z,726.33
2018-11-03T21:31:34.389Z,708.70
2018-11-03T21:34:02.897Z,714.80
2018-11-03T21:36:31.248Z,726.55
2018-11-03T21:38:59.563Z,740.35
2018-11-03T21:41:27.881Z,685.65
2018-11-03T21:43:56.212Z,706.58
2018-11-03T21:46:25.294Z,725.30
2018-11-03T21:48:53.621Z,682.83
2018-11-03T21:51:21.956Z,697.02
2018-11-03T21:53:50.280Z,693.90
2018-11-03T21:56:18.603Z,693.30
2018-11-03T21:58:46.915Z,715.33
2018-11-03T22:01:15.244Z,679.42
2018-11-03T22:03:43.548Z,701.55
2018-11-03T22:06:11.902Z,699.97
2018-11-03T22:08:40.328Z,673.37
2018-11-03T22:11:08.668Z,701.77
2018-11-03T22:13:36.972Z,707.42
2018-11-03T22:16:05.364Z,716.60
2018-11-03T22:18:33.680Z,707.40
2018-11-03T22:21:02.021Z,721.37
2018-11-03T22:23:30.323Z,724.95
2018-11-03T22:25:58.645Z,720.27
2018-11-03T22:28:26.947Z,716.43
2018-11-03T22:30:55.343Z,704.48
2018-11-03T22:33:23.667Z,714.65
2018-11-03T22:35:51.987Z,713.98
2018-11-03T22:38:20.328Z,716.73
2018-11-03T22:40:48.658Z,715.80
2018-11-03T22:43:16.980Z,692.95
2018-11-03T22:45:45.321Z,718.97
2018-11-03T22:48:13.619Z,716.40
2018-11-03T22:50:41.944Z,690.07
2018-11-03T22:53:10.357Z,698.90
2018-11-03T22:55:38.685Z,695.23
2018-11-03T22:58:07.285Z,701.33
2018-11-03T23:00:39.844Z,691.05
2018-11-03T23:03:08.240Z,693.50
2018-11-03T23:05:36.577Z,697.52
2018-11-03T23:08:05.348Z,721.45
2018-11-03T23:10:33.667Z,695.47
2018-11-03T23:13:02.094Z,694.80
2018-11-03T23:15:30.355Z,713.33
2018-11-03T23:17:58.673Z,753.20
2018-11-03T23:20:27.068Z,699.62
2018-11-03T23:22:55.369Z,712.33
2018-11-03T23:25:23.703Z,704.05
2018-11-03T23:27:52.028Z,716.40
2018-11-03T23:30:20.396Z,719.05
2018-11-03T23:32:48.722Z,731.10
2018-11-03T23:35:17.053Z,731.73
2018-11-03T23:37:45.364Z,717.30
2018-11-03T23:40:13.689Z,734.55
2018-11-03T23:42:42.052Z,716.38
2018-11-03T23:45:10.827Z,733.45
2018-11-03T23:47:39.436Z,743.37
2018-11-03T23:50:09.357Z,740.20
2018-11-03T23:52:41.931Z,732.65
2018-11-03T23:55:10.241Z,739.27
2018-11-03T23:57:38.613Z,733.02
